Time;durP1;ratioP1;P1;durP2;ratioP2;P2;SDS_P1;SDS_P2;PMS_P1;PMS_P2;Temp;Humidity;BMP_temperature;BMP_pressure;BME280_temperature;BME280_humidity;BME280_pressure;Samples;Min_cycle;Max_cycle;Signal;HPM_P1;HPM_P2
2023/09/09 00:00:09;;;;;;;4.00;1.80;;;;;;;16.82;51.83;100520.45;1635334;88;21563;-66
2023/09/09 00:02:41;;;;;;;4.50;1.70;;;;;;;16.83;51.74;100523.52;1635482;88;21067;-66
2023/09/09 00:05:10;;;;;;;3.25;1.60;;;;;;;16.85;51.47;100521.91;1614317;88;21168;-66
2023/09/09 00:07:40;;;;;;;5.58;1.60;;;;;;;16.88;51.52;100525.59;1635430;88;21129;-66
2023/09/09 00:10:10;;;;;;;3.95;1.62;;;;;;;16.90;51.38;100513.20;1635482;88;21231;-66
2023/09/09 00:12:39;;;;;;;5.17;2.00;;;;;;;16.92;51.10;100522.69;1635447;88;21108;-66
2023/09/09 00:15:09;;;;;;;3.27;1.70;;;;;;;16.96;50.95;100528.05;1635408;88;21090;-66
2023/09/09 00:17:38;;;;;;;4.50;2.12;;;;;;;16.99;50.79;100528.95;1656608;83;21065;-67
2023/09/09 00:20:11;;;;;;;4.62;1.80;;;;;;;17.01;50.70;100521.26;1718504;82;21061;-66
2023/09/09 00:22:41;;;;;;;5.00;1.62;;;;;;;17.03;50.63;100524.09;1711604;84;21107;-67
2023/09/09 00:25:11;;;;;;;3.17;1.57;;;;;;;17.05;50.59;100528.02;1614900;88;21572;-67
2023/09/09 00:27:40;;;;;;;5.70;1.77;;;;;;;17.08;50.49;100523.38;1614938;89;21144;-66
2023/09/09 00:30:10;;;;;;;3.37;1.80;;;;;;;17.08;50.47;100519.23;1614797;89;21468;-66
2023/09/09 00:32:39;;;;;;;3.05;1.70;;;;;;;17.08;50.40;100515.08;1594252;89;21065;-67
2023/09/09 00:35:09;;;;;;;4.22;1.52;;;;;;;17.08;50.35;100510.92;1593654;89;21120;-66
2023/09/09 00:37:39;;;;;;;2.67;1.70;;;;;;;17.09;50.42;100515.37;1614664;87;21045;-65
2023/09/09 00:40:09;;;;;;;2.40;1.40;;;;;;;17.10;50.42;100512.91;1614877;89;21057;-67
2023/09/09 00:42:39;;;;;;;4.65;2.00;;;;;;;17.13;50.43;100512.44;1594315;89;21061;-67
2023/09/09 00:45:09;;;;;;;3.72;1.90;;;;;;;17.10;50.39;100502.69;1614813;89;21465;-66
2023/09/09 00:47:39;;;;;;;6.65;1.60;;;;;;;17.11;50.44;100504.91;1614781;87;21500;-67
2023/09/09 00:50:11;;;;;;;7.08;1.98;;;;;;;17.13;50.47;100505.52;1677471;84;20998;-68
2023/09/09 00:52:43;;;;;;;2.98;1.57;;;;;;;17.14;50.45;100501.66;1712065;82;21487;-66
2023/09/09 00:55:12;;;;;;;3.87;1.60;;;;;;;17.14;50.45;100496.12;1712084;82;21437;-66
2023/09/09 00:57:41;;;;;;;3.83;1.85;;;;;;;17.16;50.49;100493.12;1712037;82;21503;-66
2023/09/09 01:00:14;;;;;;;4.08;1.70;;;;;;;17.16;50.52;100498.11;1712412;83;21084;-67
2023/09/09 01:02:44;;;;;;;8.18;2.00;;;;;;;17.15;50.59;100499.20;1687703;83;21005;-67
2023/09/09 01:05:14;;;;;;;5.65;1.60;;;;;;;17.13;50.64;100490.28;1712075;84;21577;-66
2023/09/09 01:07:49;;;;;;;2.70;1.42;;;;;;;17.15;50.71;100496.97;1712161;84;21493;-66
2023/09/09 01:10:19;;;;;;;3.60;1.72;;;;;;;17.14;50.79;100485.05;1712270;84;21485;-67
2023/09/09 01:12:48;;;;;;;6.12;1.75;;;;;;;17.12;50.91;100485.83;1712224;84;21042;-66
2023/09/09 01:15:17;;;;;;;3.50;1.80;;;;;;;17.09;51.00;100480.77;1712044;84;21465;-66
2023/09/09 01:17:46;;;;;;;3.50;2.02;;;;;;;17.10;51.12;100483.84;1712351;84;21073;-66
2023/09/09 01:20:17;;;;;;;5.70;1.90;;;;;;;17.07;51.22;100483.78;1717535;82;21040;-66
2023/09/09 01:22:48;;;;;;;3.00;1.60;;;;;;;17.06;51.34;100484.02;1720463;82;21056;-66
2023/09/09 01:25:18;;;;;;;6.25;2.22;;;;;;;17.05;51.47;100487.87;1724914;83;21472;-67
2023/09/09 01:27:47;;;;;;;4.33;1.67;;;;;;;17.05;51.66;100487.87;1724807;83;21017;-67
2023/09/09 01:30:17;;;;;;;8.53;1.80;;;;;;;17.05;51.72;100486.48;1635618;88;21154;-65
2023/09/09 01:32:47;;;;;;;5.35;2.17;;;;;;;17.04;51.77;100483.41;1635648;88;21069;-67
2023/09/09 01:35:16;;;;;;;5.35;1.90;;;;;;;17.02;51.91;100483.65;1635442;88;21548;-66
2023/09/09 01:37:47;;;;;;;4.90;1.92;;;;;;;16.98;52.08;100491.28;1614207;88;21103;-66
2023/09/09 01:40:17;;;;;;;6.72;2.10;;;;;;;16.96;52.21;100490.67;1625050;88;21088;-66
2023/09/09 01:42:47;;;;;;;5.20;1.82;;;;;;;16.94;52.40;100495.61;1635623;87;21094;-67
2023/09/09 01:45:17;;;;;;;4.47;1.77;;;;;;;16.93;52.56;100499.45;1635548;88;21537;-65
2023/09/09 01:47:47;;;;;;;3.20;1.80;;;;;;;16.91;52.76;100490.01;1644767;83;21041;-65
2023/09/09 01:50:17;;;;;;;7.45;2.05;;;;;;;16.89;52.92;100498.21;1724798;83;21120;-66
2023/09/09 01:52:46;;;;;;;5.42;1.72;;;;;;;16.87;53.10;100498.98;1697093;82;21081;-66
2023/09/09 01:55:15;;;;;;;4.45;1.85;;;;;;;16.85;53.29;100497.00;1725064;83;21060;-66
2023/09/09 01:57:46;;;;;;;10.58;2.72;;;;;;;16.81;53.48;100498.01;1696071;83;21077;-66
2023/09/09 02:00:16;;;;;;;5.58;2.15;;;;;;;16.78;53.82;100501.25;1724847;82;21492;-65
2023/09/09 02:02:45;;;;;;;7.00;1.90;;;;;;;16.73;53.98;100499.73;1725022;83;21068;-66
2023/09/09 02:05:14;;;;;;;4.85;1.77;;;;;;;16.69;54.22;100504.89;1725046;82;21048;-68
2023/09/09 02:07:44;;;;;;;5.30;1.98;;;;;;;16.66;54.41;100502.59;1724804;82;21018;-67
2023/09/09 02:10:14;;;;;;;5.12;2.00;;;;;;;16.65;54.62;100500.91;1725069;83;21025;-68
2023/09/09 02:12:43;;;;;;;11.05;2.47;;;;;;;16.64;54.73;100502.50;1725178;83;21430;-66
2023/09/09 02:15:34;;;;;;;7.78;2.30;;;;;;;16.62;54.87;100506.88;1724829;83;21025;-66
2023/09/09 02:18:05;;;;;;;3.83;1.80;;;;;;;16.61;54.94;100502.97;1655918;85;21054;-67
2023/09/09 02:20:34;;;;;;;3.77;1.70;;;;;;;16.57;55.05;100497.59;1670407;86;21062;-66
2023/09/09 02:23:03;;;;;;;5.00;1.98;;;;;;;16.52;55.27;100505.22;1670356;86;21047;-66
2023/09/09 02:25:35;;;;;;;5.00;2.02;;;;;;;16.49;55.47;100511.22;1631366;86;21485;-66
2023/09/09 02:28:04;;;;;;;4.90;1.70;;;;;;;16.46;55.69;100507.53;1670503;84;21026;-66
2023/09/09 02:30:34;;;;;;;2.47;1.52;;;;;;;16.42;55.97;100502.16;1670317;85;21481;-65
2023/09/09 02:33:04;;;;;;;7.60;2.08;;;;;;;16.39;56.18;100507.63;1670362;86;21070;-66
2023/09/09 02:35:33;;;;;;;9.95;2.35;;;;;;;16.37;56.37;100512.55;1670356;86;21458;-65
2023/09/09 02:38:04;;;;;;;5.40;1.90;;;;;;;16.34;56.56;100508.02;1670452;86;21474;-66
2023/09/09 02:40:34;;;;;;;4.53;2.00;;;;;;;16.31;56.78;100509.33;1670603;85;21459;-65
2023/09/09 02:43:03;;;;;;;4.25;2.05;;;;;;;16.26;56.99;100510.56;1670670;84;21446;-67
2023/09/09 02:45:33;;;;;;;3.45;1.80;;;;;;;16.24;57.19;100511.84;1597102;90;21568;-66
2023/09/09 02:48:03;;;;;;;4.75;2.10;;;;;;;16.22;57.45;100514.00;1597147;90;21095;-66
2023/09/09 02:50:31;;;;;;;5.83;2.10;;;;;;;16.18;57.67;100513.61;1640272;87;21507;-66
2023/09/09 02:53:01;;;;;;;4.75;2.10;;;;;;;16.16;57.91;100524.06;1640344;87;21092;-67
2023/09/09 02:55:31;;;;;;;4.53;1.95;;;;;;;16.13;58.22;100523.14;1640607;87;21040;-66
2023/09/09 02:58:00;;;;;;;4.72;1.90;;;;;;;16.08;58.41;100525.22;1640321;86;21064;-66
2023/09/09 03:00:29;;;;;;;9.90;2.55;;;;;;;16.07;58.56;100531.82;1618609;87;21476;-66
2023/09/09 03:02:58;;;;;;;5.83;2.27;;;;;;;16.06;58.66;100541.19;1656760;83;21508;-65
2023/09/09 03:05:28;;;;;;;6.70;2.20;;;;;;;16.07;58.78;100535.13;1717504;82;21024;-66
2023/09/09 03:07:58;;;;;;;4.85;2.17;;;;;;;16.07;58.91;100533.73;1717656;83;21017;-66
2023/09/09 03:10:28;;;;;;;6.10;2.17;;;;;;;16.05;58.94;100538.12;1676945;83;21084;-65
2023/09/09 03:12:57;;;;;;;8.85;2.20;;;;;;;16.05;58.99;100546.95;1723411;83;21048;-67
2023/09/09 03:15:26;;;;;;;11.22;2.37;;;;;;;16.05;59.13;100546.95;1699722;83;21135;-66
2023/09/09 03:17:57;;;;;;;7.22;2.33;;;;;;;16.03;59.23;100544.41;1720807;83;21132;-67
2023/09/09 03:20:26;;;;;;;5.83;2.05;;;;;;;16.03;59.35;100546.33;1608161;89;21085;-66
2023/09/09 03:22:57;;;;;;;6.28;2.47;;;;;;;16.00;59.51;100543.48;1577867;91;21112;-66
2023/09/09 03:25:27;;;;;;;4.72;2.22;;;;;;;15.96;59.66;100547.79;1577779;91;21192;-66
2023/09/09 03:27:56;;;;;;;6.10;2.15;;;;;;;15.94;59.80;100548.55;1568644;91;21570;-68
2023/09/09 03:30:26;;;;;;;6.72;2.05;;;;;;;15.93;59.85;100551.02;1568715;91;21135;-66
2023/09/09 03:32:59;;;;;;;5.67;2.35;;;;;;;15.94;59.86;100547.71;1568907;90;21055;-66
2023/09/09 03:35:30;;;;;;;7.53;2.08;;;;;;;15.93;59.91;100553.77;1568823;91;21538;-67
2023/09/09 03:37:59;;;;;;;6.10;2.00;;;;;;;15.91;59.94;100551.78;1596947;85;21066;-67
2023/09/09 03:40:28;;;;;;;5.12;2.17;;;;;;;15.90;60.02;100554.77;1679899;85;21019;-65
2023/09/09 03:42:58;;;;;;;5.53;1.92;;;;;;;15.90;60.00;100565.83;1679758;85;21047;-67
2023/09/09 03:45:27;;;;;;;7.90;3.30;;;;;;;15.90;59.95;100561.14;1679911;85;21079;-67
2023/09/09 03:47:57;;;;;;;4.67;2.02;;;;;;;15.91;59.90;100564.22;1651525;85;21554;-66
2023/09/09 03:50:27;;;;;;;5.00;2.00;;;;;;;15.93;59.98;100575.04;1679705;85;21474;-66
2023/09/09 03:52:57;;;;;;;6.42;2.20;;;;;;;15.90;59.99;100573.58;1679718;85;21533;-66
2023/09/09 03:55:26;;;;;;;4.33;2.62;;;;;;;15.91;59.90;100574.42;1679882;85;21059;-65
2023/09/09 03:57:57;;;;;;;5.50;2.10;;;;;;;15.93;59.84;100573.13;1679566;85;21090;-67
2023/09/09 04:00:27;;;;;;;9.08;2.33;;;;;;;15.96;59.86;100569.05;1680007;85;20991;-66
2023/09/09 04:02:57;;;;;;;6.22;2.00;;;;;;;15.98;59.76;100566.37;1651378;85;21063;-67
2023/09/09 04:05:26;;;;;;;6.97;2.20;;;;;;;15.97;59.67;100570.20;1679688;85;21051;-67
2023/09/09 04:07:58;;;;;;;9.78;2.40;;;;;;;15.97;59.61;100567.98;1679923;84;21106;-66
2023/09/09 04:10:27;;;;;;;6.72;2.40;;;;;;;15.98;59.60;100574.66;1679603;85;21540;-67
2023/09/09 04:12:56;;;;;;;4.08;2.00;;;;;;;16.00;59.66;100568.37;1679707;85;21078;-67
2023/09/09 04:15:25;;;;;;;6.60;2.08;;;;;;;16.01;59.65;100571.97;1679643;85;21497;-66
2023/09/09 04:17:55;;;;;;;4.35;1.80;;;;;;;16.03;59.65;100573.97;1677360;85;21091;-67
2023/09/09 04:20:26;;;;;;;3.98;1.80;;;;;;;16.05;59.58;100567.14;1677347;85;21079;-68
2023/09/09 04:22:55;;;;;;;4.90;2.02;;;;;;;16.08;59.47;100574.12;1659830;85;21059;-67
2023/09/09 04:25:24;;;;;;;4.17;2.20;;;;;;;16.07;59.32;100575.20;1677006;85;21043;-68
2023/09/09 04:27:54;;;;;;;6.85;2.30;;;;;;;16.06;59.27;100576.28;1676940;85;21529;-66
2023/09/09 04:33:00;;;;;;;3.80;1.80;;;;;;;16.06;59.27;100594.24;1677247;85;21108;-67
2023/09/09 04:35:29;;;;;;;6.90;1.67;;;;;;;16.06;59.12;100592.33;1676925;85;21142;-67
2023/09/09 04:37:58;;;;;;;8.20;1.90;;;;;;;16.07;58.89;100590.41;1676941;85;21091;-67
2023/09/09 04:40:27;;;;;;;5.17;1.70;;;;;;;16.07;58.87;100583.50;1676962;84;21059;-66
2023/09/09 04:42:56;;;;;;;4.75;1.80;;;;;;;16.08;58.81;100592.94;1658316;85;21015;-66
2023/09/09 04:45:25;;;;;;;5.12;1.80;;;;;;;16.09;58.75;100593.78;1677157;84;21494;-66
2023/09/09 04:47:53;;;;;;;3.30;1.70;;;;;;;16.09;58.67;100591.02;1677076;85;21094;-67
2023/09/09 04:50:22;;;;;;;5.85;2.00;;;;;;;16.09;58.57;100591.87;1677093;85;21063;-67
2023/09/09 04:52:51;;;;;;;7.17;2.42;;;;;;;16.07;58.60;100591.25;1676950;85;21131;-67
2023/09/09 04:55:21;;;;;;;5.12;2.33;;;;;;;16.05;58.47;100587.88;1676916;85;21063;-66
2023/09/09 04:57:51;;;;;;;5.17;1.92;;;;;;;16.06;58.44;100597.85;1677106;85;21091;-67
2023/09/09 05:00:22;;;;;;;10.98;3.55;;;;;;;16.09;58.43;100602.92;1676934;85;21018;-67
2023/09/09 05:02:52;;;;;;;8.65;2.20;;;;;;;16.10;58.33;100597.70;1677111;85;21039;-66
2023/09/09 05:05:21;;;;;;;4.80;2.05;;;;;;;16.09;58.10;100596.02;1676943;85;21090;-65
2023/09/09 05:07:52;;;;;;;6.42;1.90;;;;;;;16.10;57.98;100604.61;1601786;89;21099;-67
2023/09/09 05:10:24;;;;;;;6.78;1.98;;;;;;;16.14;57.85;100605.00;1601914;88;21244;-67
2023/09/09 05:12:54;;;;;;;11.05;3.95;;;;;;;16.20;57.78;100603.23;1602004;89;21095;-66
2023/09/09 05:15:24;;;;;;;4.97;1.90;;;;;;;16.26;57.71;100609.27;1581305;89;21102;-66
2023/09/09 05:17:54;;;;;;;5.85;1.90;;;;;;;16.29;57.60;100609.65;1601656;89;21102;-67
2023/09/09 05:20:24;;;;;;;4.87;1.70;;;;;;;16.31;57.43;100610.80;1601891;88;21106;-66
2023/09/09 05:22:53;;;;;;;7.03;2.37;;;;;;;16.32;57.32;100609.72;1529004;94;21119;-67
2023/09/09 05:25:24;;;;;;;6.22;1.98;;;;;;;16.33;57.33;100615.56;1510093;94;21098;-65
2023/09/09 05:27:53;;;;;;;3.08;1.50;;;;;;;16.35;57.35;100618.94;1529019;94;21611;-67
2023/09/09 05:30:24;;;;;;;8.80;2.98;;;;;;;16.38;57.29;100622.63;1529276;93;21107;-66
2023/09/09 05:32:53;;;;;;;10.82;2.33;;;;;;;16.40;57.29;100629.63;1578897;88;21550;-66
2023/09/09 05:35:22;;;;;;;5.40;1.90;;;;;;;16.43;57.35;100628.31;1603204;89;21087;-67
2023/09/09 05:37:51;;;;;;;3.40;1.77;;;;;;;16.46;57.38;100630.08;1603145;89;21570;-66
2023/09/09 05:40:20;;;;;;;7.00;2.20;;;;;;;16.48;57.40;100641.76;1603122;89;21129;-67
2023/09/09 05:42:49;;;;;;;4.97;2.10;;;;;;;16.47;57.45;100641.45;1603113;89;21668;-67
2023/09/09 05:45:19;;;;;;;6.67;2.40;;;;;;;16.47;57.56;100643.38;1603051;89;21082;-66
2023/09/09 05:47:47;;;;;;;4.37;2.12;;;;;;;16.47;57.62;100648.37;1648984;85;21039;-66
2023/09/09 05:50:17;;;;;;;5.85;2.15;;;;;;;16.50;57.78;100644.30;1676941;85;21451;-66
2023/09/09 05:52:47;;;;;;;3.52;1.52;;;;;;;16.51;57.88;100649.29;1677195;85;21011;-67
2023/09/09 05:55:17;;;;;;;3.65;1.90;;;;;;;16.49;57.96;100660.59;1676920;85;21090;-67
2023/09/09 05:57:46;;;;;;;8.03;2.10;;;;;;;16.49;58.16;100653.67;1677100;85;21047;-68
2023/09/09 06:00:16;;;;;;;4.20;1.80;;;;;;;16.48;58.23;100659.73;1676978;84;21082;-66
2023/09/09 06:02:47;;;;;;;4.95;1.72;;;;;;;16.47;58.22;100656.66;1658252;85;21513;-67
2023/09/09 06:05:16;;;;;;;6.65;1.72;;;;;;;16.49;58.25;100661.97;1676934;85;21561;-68
2023/09/09 06:07:47;;;;;;;7.15;2.27;;;;;;;16.51;57.89;100666.73;1676861;85;21108;-66
2023/09/09 06:10:16;;;;;;;4.12;1.60;;;;;;;16.52;57.90;100669.80;1682524;85;21102;-65
2023/09/09 06:12:47;;;;;;;5.08;1.75;;;;;;;16.55;57.76;100666.58;1658372;85;21051;-66
2023/09/09 06:15:16;;;;;;;4.67;1.65;;;;;;;16.54;57.58;100670.42;1601934;89;21099;-67
2023/09/09 06:17:46;;;;;;;5.10;1.85;;;;;;;16.54;57.38;100680.64;1598673;89;21230;-67
2023/09/09 06:20:15;;;;;;;3.87;1.82;;;;;;;16.54;57.29;100675.95;1595780;90;21561;-65
2023/09/09 06:22:45;;;;;;;7.12;1.75;;;;;;;16.57;57.31;100671.34;1595580;90;21399;-66
2023/09/09 06:25:14;;;;;;;4.87;1.90;;;;;;;16.59;57.40;100671.95;1595669;90;21119;-66
2023/09/09 06:27:44;;;;;;;4.58;1.62;;;;;;;16.62;57.49;100675.64;1595556;90;21531;-67
2023/09/09 06:30:13;;;;;;;5.17;1.92;;;;;;;16.64;57.38;100676.26;1590578;90;21127;-67
2023/09/09 06:32:43;;;;;;;4.37;1.70;;;;;;;16.62;57.40;100679.80;1610723;86;21090;-69
2023/09/09 06:35:12;;;;;;;4.35;1.90;;;;;;;16.63;57.37;100691.70;1670321;86;21097;-68
2023/09/09 06:37:41;;;;;;;8.03;1.95;;;;;;;16.62;57.31;100687.25;1670475;86;21067;-67
2023/09/09 06:40:11;;;;;;;7.65;1.90;;;;;;;16.62;57.43;100698.31;1670237;86;21570;-69
2023/09/09 06:42:41;;;;;;;6.33;2.10;;;;;;;16.63;57.50;100700.85;1670322;86;21063;-68
2023/09/09 06:45:12;;;;;;;5.47;1.82;;;;;;;16.64;57.67;100705.31;1651597;86;21032;-68
2023/09/09 06:47:45;;;;;;;4.72;1.85;;;;;;;16.69;57.61;100712.95;1670349;86;21047;-66
2023/09/09 06:50:14;;;;;;;6.12;1.70;;;;;;;16.69;57.64;100708.27;1670636;86;21036;-65
2023/09/09 06:52:43;;;;;;;4.50;1.80;;;;;;;16.71;57.66;100713.56;1670491;86;21084;-67
2023/09/09 06:55:13;;;;;;;6.10;2.10;;;;;;;16.71;57.70;100717.19;1670392;86;21063;-67
2023/09/09 06:57:41;;;;;;;5.25;1.90;;;;;;;16.74;57.77;100715.34;1670226;86;21479;-67
2023/09/09 07:00:12;;;;;;;5.10;1.67;;;;;;;16.78;57.86;100721.25;1670392;86;21463;-67
2023/09/09 07:02:42;;;;;;;4.15;1.82;;;;;;;16.82;57.69;100727.17;1670320;86;21543;-68
2023/09/09 07:05:17;;;;;;;5.05;1.70;;;;;;;16.87;57.36;100722.64;1670285;86;21075;-68
2023/09/09 07:07:47;;;;;;;3.60;1.47;;;;;;;16.89;57.34;100722.41;1670281;86;21079;-67
2023/09/09 07:10:16;;;;;;;5.20;1.90;;;;;;;16.93;57.41;100725.05;1670361;85;21079;-67
2023/09/09 07:12:45;;;;;;;4.92;1.80;;;;;;;16.97;57.42;100722.13;1651755;86;21475;-67
2023/09/09 07:15:26;;;;;;;6.75;2.00;;;;;;;17.03;57.33;100722.58;1670522;86;21063;-66
2023/09/09 07:17:56;;;;;;;3.35;1.70;;;;;;;17.10;57.08;100728.34;1671177;86;21055;-67
2023/09/09 07:20:24;;;;;;;4.28;1.70;;;;;;;17.19;56.86;100730.25;1672875;85;21043;-67
2023/09/09 07:22:55;;;;;;;4.33;1.57;;;;;;;17.28;56.57;100736.31;1672693;86;21016;-67
2023/09/09 07:25:23;;;;;;;4.30;1.50;;;;;;;17.35;56.37;100739.30;1672615;84;21020;-67
2023/09/09 07:27:52;;;;;;;6.95;2.00;;;;;;;17.41;56.07;100741.67;1672716;86;21023;-68
2023/09/09 07:30:21;;;;;;;5.35;1.67;;;;;;;17.43;55.73;100744.52;1654319;86;21083;-67
2023/09/09 07:32:50;;;;;;;3.72;1.60;;;;;;;17.43;55.64;100750.05;1672562;86;21023;-67
2023/09/09 07:35:19;;;;;;;5.28;1.70;;;;;;;17.43;55.40;100756.98;1672580;86;21135;-67
2023/09/09 07:37:49;;;;;;;6.10;1.80;;;;;;;17.41;55.19;100756.37;1672729;86;21035;-66
2023/09/09 07:40:20;;;;;;;4.58;1.90;;;;;;;17.40;55.17;100759.37;1672587;84;21552;-67
2023/09/09 07:42:50;;;;;;;6.60;1.87;;;;;;;17.42;54.87;100751.13;1672774;86;21074;-67
2023/09/09 07:45:19;;;;;;;6.83;1.95;;;;;;;17.46;55.01;100760.36;1672762;86;21055;-67
2023/09/09 07:47:49;;;;;;;5.42;1.80;;;;;;;17.51;55.09;100757.73;1672718;85;21195;-67
2023/09/09 07:50:18;;;;;;;9.28;1.90;;;;;;;17.62;55.28;100755.04;1672578;84;21035;-67
2023/09/09 07:52:49;;;;;;;6.53;1.70;;;;;;;17.92;55.04;100753.66;1664880;84;21055;-66
2023/09/09 07:55:18;;;;;;;3.58;2.10;;;;;;;18.40;54.13;100754.05;1670382;84;21139;-68
2023/09/09 07:57:47;;;;;;;7.80;1.92;;;;;;;18.96;53.31;100758.17;1671670;86;21079;-68
2023/09/09 08:00:17;;;;;;;5.25;2.12;;;;;;;19.55;51.85;100761.68;1655435;86;21107;-68
2023/09/09 08:02:46;;;;;;;3.42;1.65;;;;;;;20.15;49.90;100769.45;1631188;87;21552;-71
2023/09/09 08:05:15;;;;;;;5.30;1.85;;;;;;;20.76;48.33;100761.59;1631295;88;21070;-71
2023/09/09 08:07:44;;;;;;;2.98;1.60;;;;;;;21.35;46.46;100755.47;1611900;88;21094;-70
2023/09/09 08:10:16;;;;;;;4.80;1.77;;;;;;;21.85;45.30;100756.61;1645308;86;21155;-70
2023/09/09 08:12:44;;;;;;;5.58;1.70;;;;;;;22.44;43.74;100753.84;1656707;86;21071;-70
2023/09/09 08:15:14;;;;;;;5.50;1.67;;;;;;;22.91;42.26;100758.13;1656750;86;21087;-71
2023/09/09 08:17:45;;;;;;;4.75;1.20;;;;;;;23.28;40.46;100758.58;1657133;86;21107;-69
2023/09/09 08:20:14;;;;;;;3.85;1.42;;;;;;;23.56;39.46;100756.78;1658525;86;21487;-70
2023/09/09 08:22:43;;;;;;;7.17;1.95;;;;;;;23.76;38.87;100762.16;1658849;86;21087;-71
2023/09/09 08:25:12;;;;;;;3.50;1.20;;;;;;;23.86;38.13;100763.02;1658779;86;21165;-70
2023/09/09 08:27:41;;;;;;;6.12;1.85;;;;;;;24.02;37.76;100760.52;1669720;86;21096;-70
2023/09/09 08:30:13;;;;;;;3.40;1.35;;;;;;;24.09;37.04;100766.44;1674334;86;21096;-71
2023/09/09 08:32:43;;;;;;;3.87;1.15;;;;;;;24.05;36.38;100763.31;1674280;84;21129;-73
2023/09/09 08:35:12;;;;;;;5.45;1.47;;;;;;;24.02;35.62;100770.31;1674355;86;21089;-68
2023/09/09 08:37:41;;;;;;;6.45;1.85;;;;;;;24.15;35.60;100755.52;1674466;85;21120;-69
2023/09/09 08:40:11;;;;;;;4.55;1.32;;;;;;;24.21;35.49;100765.05;1674605;84;21082;-70
2023/09/09 08:43:04;;;;;;;2.80;1.20;;;;;;;24.24;34.92;100763.09;1637272;86;21065;-71
2023/09/09 08:45:41;;;;;;;3.60;1.45;;;;;;;24.25;34.60;100761.12;1674375;86;21116;-72
2023/09/09 08:48:10;;;;;;;4.80;1.25;;;;;;;24.19;34.22;100766.44;1674363;86;21473;-73
2023/09/09 08:50:38;;;;;;;3.12;1.12;;;;;;;24.12;34.01;100787.72;1674428;85;21061;-71
2023/09/09 08:53:07;;;;;;;5.62;1.40;;;;;;;24.06;33.62;100777.62;1674657;86;21085;-71
2023/09/09 08:55:37;;;;;;;3.35;1.35;;;;;;;24.01;33.63;100783.19;1674303;84;21081;-73
2023/09/09 08:58:06;;;;;;;4.20;1.40;;;;;;;23.84;33.47;100772.25;1674294;84;21116;-70
2023/09/09 09:00:35;;;;;;;4.45;1.70;;;;;;;23.59;34.13;100784.21;1671142;86;21047;-70
2023/09/09 09:03:06;;;;;;;2.60;1.10;;;;;;;23.51;34.02;100790.86;1658847;86;21079;-71
2023/09/09 09:05:37;;;;;;;3.80;1.50;;;;;;;23.40;33.99;100796.95;1658797;86;21083;-71
2023/09/09 09:08:07;;;;;;;2.87;1.40;;;;;;;23.23;34.01;100794.91;1640025;86;21099;-71
2023/09/09 09:10:42;;;;;;;1.47;1.20;;;;;;;23.05;34.42;100792.02;1658824;86;21043;-70
2023/09/09 09:13:12;;;;;;;2.58;1.00;;;;;;;22.91;34.61;100793.06;1658620;86;21059;-70
2023/09/09 09:15:44;;;;;;;4.15;1.55;;;;;;;22.77;34.89;100786.23;1658542;86;21122;-70
2023/09/09 09:18:16;;;;;;;3.10;1.50;;;;;;;22.67;35.27;100790.31;1657501;86;21114;-73
2023/09/09 09:20:45;;;;;;;4.72;1.52;;;;;;;22.59;35.35;100800.03;1654502;87;21135;-69
2023/09/09 09:23:14;;;;;;;3.60;1.17;;;;;;;22.52;35.49;100793.84;1654529;87;21096;-70
2023/09/09 09:25:45;;;;;;;3.50;1.22;;;;;;;22.45;35.52;100787.08;1658913;85;21075;-69
2023/09/09 09:28:15;;;;;;;2.08;1.17;;;;;;;22.36;35.71;100785.05;1708734;84;21038;-71
2023/09/09 09:30:45;;;;;;;3.02;1.15;;;;;;;22.31;35.80;100789.20;1685851;84;21081;-71
2023/09/09 09:33:15;;;;;;;3.27;1.47;;;;;;;22.25;35.77;100788.31;1708439;82;21082;-71
2023/09/09 09:35:45;;;;;;;4.92;1.50;;;;;;;22.20;35.95;100788.27;1685818;84;21071;-69
2023/09/09 09:38:17;;;;;;;3.35;1.65;;;;;;;22.10;36.21;100790.92;1690701;84;21090;-71
2023/09/09 09:40:47;;;;;;;2.75;1.30;;;;;;;22.00;36.56;100790.80;1662004;85;21201;-69
2023/09/09 09:43:19;;;;;;;3.40;1.30;;;;;;;21.93;36.97;100797.14;1708695;84;21043;-70
2023/09/09 09:45:47;;;;;;;5.72;1.70;;;;;;;21.91;36.90;100793.77;1708672;83;21110;-72
2023/09/09 09:48:26;;;;;;;2.72;1.25;;;;;;;21.89;36.64;100795.44;1708839;84;21039;-71
2023/09/09 09:50:55;;;;;;;2.30;1.37;;;;;;;21.85;36.56;100797.06;1690706;83;21051;-70
2023/09/09 09:53:26;;;;;;;3.67;1.22;;;;;;;21.75;35.99;100803.92;1708634;83;21142;-69
2023/09/09 09:55:55;;;;;;;2.70;1.22;;;;;;;21.66;36.82;100801.31;1708344;82;21091;-72
2023/09/09 09:58:24;;;;;;;2.58;1.10;;;;;;;21.63;36.30;100800.44;1708733;82;21074;-72
2023/09/09 10:00:54;;;;;;;2.10;1.32;;;;;;;21.50;36.56;100793.32;1696353;83;21131;-70
2023/09/09 10:03:23;;;;;;;3.50;1.10;;;;;;;21.40;36.63;100802.92;1672339;84;21497;-70
2023/09/09 10:05:54;;;;;;;3.98;1.30;;;;;;;21.30;36.87;100794.43;1672166;84;21303;-70
2023/09/09 10:08:32;;;;;;;2.87;1.22;;;;;;;21.27;37.17;100797.19;1672068;86;21571;-71
2023/09/09 10:11:04;;;;;;;5.97;1.40;;;;;;;21.28;36.94;100798.87;1672284;84;21155;-69
2023/09/09 10:13:50;;;;;;;2.47;1.05;;;;;;;21.23;37.24;100802.14;1655138;86;21109;-71
2023/09/09 10:16:22;;;;;;;3.85;1.50;;;;;;;21.24;37.39;100806.61;1672234;85;21089;-70
2023/09/09 10:18:52;;;;;;;2.08;1.12;;;;;;;21.24;37.49;100819.16;1661671;85;21150;-71
2023/09/09 10:21:21;;;;;;;3.90;1.70;;;;;;;21.24;37.47;100814.97;1646621;87;21095;-70
2023/09/09 10:23:52;;;;;;;3.17;1.12;;;;;;;21.18;37.65;100816.81;1647169;87;21131;-71
2023/09/09 10:26:21;;;;;;;4.90;1.37;;;;;;;21.18;37.88;100809.30;1646727;87;21114;-71
2023/09/09 10:28:50;;;;;;;2.80;1.12;;;;;;;21.24;37.80;100812.19;1646655;87;21036;-71
2023/09/09 10:31:19;;;;;;;2.90;1.20;;;;;;;21.26;37.57;100808.59;1646545;86;21096;-70
2023/09/09 10:33:50;;;;;;;2.60;1.40;;;;;;;21.27;37.37;100812.52;1646671;87;21125;-71
2023/09/09 10:36:19;;;;;;;3.10;1.40;;;;;;;21.29;37.40;100817.83;1646554;87;21075;-68
2023/09/09 10:38:49;;;;;;;2.98;0.95;;;;;;;21.29;37.23;100819.22;1646689;86;21777;-70
2023/09/09 10:41:17;;;;;;;3.47;1.40;;;;;;;21.28;37.07;100825.90;1646724;86;21071;-71
2023/09/09 10:43:46;;;;;;;4.12;1.17;;;;;;;21.25;37.18;100823.08;1646464;86;21103;-71
2023/09/09 10:46:19;;;;;;;2.37;1.10;;;;;;;21.24;37.11;100820.00;1646693;87;21106;-70
2023/09/09 10:48:48;;;;;;;2.83;1.07;;;;;;;21.19;37.39;100822.13;1630046;87;21223;-70
2023/09/09 10:51:18;;;;;;;2.60;1.35;;;;;;;21.18;37.63;100819.61;1646590;86;21056;-70
2023/09/09 10:53:47;;;;;;;3.00;1.17;;;;;;;21.20;37.42;100829.95;1608985;87;21051;-71
2023/09/09 10:56:21;;;;;;;1.92;0.98;;;;;;;21.14;37.37;100832.37;1608572;87;21206;-71
2023/09/09 10:58:51;;;;;;;1.80;0.90;;;;;;;21.10;37.22;100828.41;1646683;86;21520;-69
2023/09/09 11:01:25;;;;;;;2.95;1.15;;;;;;;21.06;37.30;100819.72;1673281;84;21020;-71
2023/09/09 11:03:54;;;;;;;2.40;1.30;;;;;;;21.00;37.50;100826.31;1650043;87;21212;-70
2023/09/09 11:06:25;;;;;;;2.65;0.90;;;;;;;20.97;36.79;100833.80;1697776;84;21016;-71
2023/09/09 11:09:00;;;;;;;5.47;1.22;;;;;;;20.97;36.84;100831.01;1650036;87;21513;-70
2023/09/09 11:11:37;;;;;;;3.30;1.40;;;;;;;21.00;36.47;100831.89;1697714;84;21475;-70
2023/09/09 11:14:09;;;;;;;3.30;1.00;;;;;;;21.08;36.46;100830.61;1697817;84;21756;-70
2023/09/09 11:16:41;;;;;;;3.77;1.05;;;;;;;21.12;36.49;100830.39;1593686;89;21119;-69
2023/09/09 11:19:13;;;;;;;3.77;0.90;;;;;;;21.16;36.45;100828.22;1600239;88;21090;-70
2023/09/09 11:21:45;;;;;;;4.72;1.15;;;;;;;21.17;36.40;100836.03;1597081;89;21174;-71
2023/09/09 11:24:14;;;;;;;2.65;1.25;;;;;;;21.12;36.78;100824.27;1596257;90;21588;-68
2023/09/09 11:27:05;;;;;;;3.55;1.37;;;;;;;21.13;36.71;100831.52;1596245;90;21229;-70
2023/09/09 11:29:34;;;;;;;1.57;1.00;;;;;;;21.17;36.60;100841.05;1580540;91;21501;-71
2023/09/09 11:32:09;;;;;;;1.32;0.90;;;;;;;21.21;36.36;100836.66;1580395;91;21157;-70
2023/09/09 11:34:38;;;;;;;2.20;0.90;;;;;;;21.21;35.94;100842.23;1580534;91;21533;-69
2023/09/09 11:37:09;;;;;;;1.77;0.90;;;;;;;21.19;35.77;100835.23;1611325;89;21113;-70
2023/09/09 11:39:41;;;;;;;1.82;0.80;;;;;;;21.16;35.55;100839.92;1611513;89;21693;-72